sensor_id;sensor_type;location;lat;lon;timestamp;temperature;humidity
80232;DHT22;69541;42.138;24.742;2023-05-10T00:00:12;24.70;38.50
80232;DHT22;69541;42.138;24.742;2023-05-10T00:02:37;24.70;38.40
80232;DHT22;69541;42.138;24.742;2023-05-10T00:05:04;24.70;38.40
80232;DHT22;69541;42.138;24.742;2023-05-10T00:07:30;24.70;38.40
80232;DHT22;69541;42.138;24.742;2023-05-10T00:09:56;24.70;38.40
80232;DHT22;69541;42.138;24.742;2023-05-10T00:12:21;24.70;38.50
80232;DHT22;69541;42.138;24.742;2023-05-10T00:14:47;24.70;38.40
80232;DHT22;69541;42.138;24.742;2023-05-10T00:17:13;24.70;38.40
80232;DHT22;69541;42.138;24.742;2023-05-10T00:19:38;24.70;38.40
80232;DHT22;69541;42.138;24.742;2023-05-10T00:22:04;24.70;38.40
80232;DHT22;69541;42.138;24.742;2023-05-10T00:24:30;24.70;38.40
80232;DHT22;69541;42.138;24.742;2023-05-10T00:26:55;24.70;38.40
80232;DHT22;69541;42.138;24.742;2023-05-10T00:29:21;24.60;38.30
80232;DHT22;69541;42.138;24.742;2023-05-10T00:31:47;24.70;38.30
80232;DHT22;69541;42.138;24.742;2023-05-10T00:34:12;24.70;38.30
80232;DHT22;69541;42.138;24.742;2023-05-10T00:36:38;24.70;38.40
80232;DHT22;69541;42.138;24.742;2023-05-10T00:39:03;24.60;38.30
80232;DHT22;69541;42.138;24.742;2023-05-10T00:41:30;24.70;38.30
80232;DHT22;69541;42.138;24.742;2023-05-10T00:43:58;24.70;38.30
80232;DHT22;69541;42.138;24.742;2023-05-10T00:46:24;24.70;38.30
80232;DHT22;69541;42.138;24.742;2023-05-10T00:48:51;24.70;38.40
80232;DHT22;69541;42.138;24.742;2023-05-10T00:51:17;24.70;38.40
80232;DHT22;69541;42.138;24.742;2023-05-10T00:53:45;24.60;38.30
80232;DHT22;69541;42.138;24.742;2023-05-10T00:56:11;24.70;38.40
80232;DHT22;69541;42.138;24.742;2023-05-10T00:58:38;24.60;38.30
80232;DHT22;69541;42.138;24.742;2023-05-10T01:01:04;24.70;38.40
80232;DHT22;69541;42.138;24.742;2023-05-10T01:03:31;24.70;38.30
80232;DHT22;69541;42.138;24.742;2023-05-10T01:05:56;24.60;38.30
80232;DHT22;69541;42.138;24.742;2023-05-10T01:08:22;24.60;38.30
80232;DHT22;69541;42.138;24.742;2023-05-10T01:10:48;24.60;38.30
80232;DHT22;69541;42.138;24.742;2023-05-10T01:13:31;24.60;38.30
80232;DHT22;69541;42.138;24.742;2023-05-10T01:15:58;24.70;38.40
80232;DHT22;69541;42.138;24.742;2023-05-10T01:18:27;24.60;38.30
80232;DHT22;69541;42.138;24.742;2023-05-10T01:21:04;24.60;38.30
80232;DHT22;69541;42.138;24.742;2023-05-10T01:24:00;24.60;38.30
80232;DHT22;69541;42.138;24.742;2023-05-10T01:26:50;24.60;38.30
80232;DHT22;69541;42.138;24.742;2023-05-10T01:30:08;24.60;38.30
80232;DHT22;69541;42.138;24.742;2023-05-10T01:32:21;24.60;38.20
80232;DHT22;69541;42.138;24.742;2023-05-10T01:35:10;24.60;38.20
80232;DHT22;69541;42.138;24.742;2023-05-10T01:40:32;24.60;39.40
80232;DHT22;69541;42.138;24.742;2023-05-10T01:43:03;24.60;38.30
80232;DHT22;69541;42.138;24.742;2023-05-10T01:45:36;24.60;38.30
80232;DHT22;69541;42.138;24.742;2023-05-10T01:48:06;24.60;38.30
80232;DHT22;69541;42.138;24.742;2023-05-10T01:50:35;24.50;38.30
80232;DHT22;69541;42.138;24.742;2023-05-10T01:53:03;24.50;38.20
80232;DHT22;69541;42.138;24.742;2023-05-10T01:55:32;24.60;38.20
80232;DHT22;69541;42.138;24.742;2023-05-10T01:58:17;24.60;38.30
80232;DHT22;69541;42.138;24.742;2023-05-10T02:00:44;24.60;38.20
80232;DHT22;69541;42.138;24.742;2023-05-10T02:03:11;24.60;38.20
80232;DHT22;69541;42.138;24.742;2023-05-10T02:05:37;24.60;38.20
80232;DHT22;69541;42.138;24.742;2023-05-10T02:08:06;24.60;38.20
80232;DHT22;69541;42.138;24.742;2023-05-10T02:10:36;24.50;38.10
80232;DHT22;69541;42.138;24.742;2023-05-10T02:13:03;24.60;38.20
80232;DHT22;69541;42.138;24.742;2023-05-10T02:15:32;24.60;38.20
80232;DHT22;69541;42.138;24.742;2023-05-10T02:17:59;24.60;38.10
80232;DHT22;69541;42.138;24.742;2023-05-10T02:20:26;24.60;38.10
80232;DHT22;69541;42.138;24.742;2023-05-10T02:22:54;24.60;38.20
80232;DHT22;69541;42.138;24.742;2023-05-10T02:25:22;24.60;38.00
80232;DHT22;69541;42.138;24.742;2023-05-10T02:27:49;24.60;38.00
80232;DHT22;69541;42.138;24.742;2023-05-10T02:30:15;24.60;38.10
80232;DHT22;69541;42.138;24.742;2023-05-10T02:32:42;24.60;38.00
80232;DHT22;69541;42.138;24.742;2023-05-10T02:35:09;24.60;38.10
80232;DHT22;69541;42.138;24.742;2023-05-10T02:37:37;24.60;38.10
80232;DHT22;69541;42.138;24.742;2023-05-10T02:40:05;24.60;38.10
80232;DHT22;69541;42.138;24.742;2023-05-10T02:42:33;24.60;38.10
80232;DHT22;69541;42.138;24.742;2023-05-10T02:45:02;24.50;38.00
80232;DHT22;69541;42.138;24.742;2023-05-10T02:47:30;24.50;38.10
80232;DHT22;69541;42.138;24.742;2023-05-10T02:49:56;24.50;38.10
80232;DHT22;69541;42.138;24.742;2023-05-10T02:52:26;24.60;38.10
80232;DHT22;69541;42.138;24.742;2023-05-10T02:54:55;24.60;38.20
80232;DHT22;69541;42.138;24.742;2023-05-10T02:57:29;24.50;38.00
80232;DHT22;69541;42.138;24.742;2023-05-10T02:59:56;24.60;38.10
80232;DHT22;69541;42.138;24.742;2023-05-10T03:02:22;24.60;38.10
80232;DHT22;69541;42.138;24.742;2023-05-10T03:04:48;24.60;38.10
80232;DHT22;69541;42.138;24.742;2023-05-10T03:07:14;24.50;38.10
80232;DHT22;69541;42.138;24.742;2023-05-10T03:09:40;24.50;38.00
80232;DHT22;69541;42.138;24.742;2023-05-10T03:15:57;24.50;38.00
80232;DHT22;69541;42.138;24.742;2023-05-10T03:18:22;24.50;38.00
80232;DHT22;69541;42.138;24.742;2023-05-10T03:20:54;24.50;38.00
80232;DHT22;69541;42.138;24.742;2023-05-10T03:25:50;24.50;38.10
80232;DHT22;69541;42.138;24.742;2023-05-10T03:28:18;24.50;38.10
80232;DHT22;69541;42.138;24.742;2023-05-10T03:30:44;24.50;38.00
80232;DHT22;69541;42.138;24.742;2023-05-10T03:33:10;24.50;38.10
80232;DHT22;69541;42.138;24.742;2023-05-10T03:35:38;24.50;38.00
80232;DHT22;69541;42.138;24.742;2023-05-10T03:38:03;24.50;38.00
80232;DHT22;69541;42.138;24.742;2023-05-10T03:40:29;24.50;38.00
80232;DHT22;69541;42.138;24.742;2023-05-10T03:42:56;24.50;38.00
80232;DHT22;69541;42.138;24.742;2023-05-10T03:45:23;24.50;38.10
80232;DHT22;69541;42.138;24.742;2023-05-10T03:47:49;24.50;38.10
80232;DHT22;69541;42.138;24.742;2023-05-10T03:50:15;24.50;37.90
80232;DHT22;69541;42.138;24.742;2023-05-10T03:52:40;24.50;37.50
80232;DHT22;69541;42.138;24.742;2023-05-10T03:55:06;24.40;36.00
80232;DHT22;69541;42.138;24.742;2023-05-10T03:57:33;24.40;35.30
80232;DHT22;69541;42.138;24.742;2023-05-10T03:59:58;24.40;35.20
80232;DHT22;69541;42.138;24.742;2023-05-10T04:02:24;24.20;35.10
80232;DHT22;69541;42.138;24.742;2023-05-10T04:04:50;24.20;35.10
80232;DHT22;69541;42.138;24.742;2023-05-10T04:07:16;24.10;34.90
80232;DHT22;69541;42.138;24.742;2023-05-10T04:09:41;24.10;34.80
80232;DHT22;69541;42.138;24.742;2023-05-10T04:12:07;24.10;34.60
80232;DHT22;69541;42.138;24.742;2023-05-10T04:14:33;24.10;34.60
80232;DHT22;69541;42.138;24.742;2023-05-10T04:16:58;24.10;34.40
80232;DHT22;69541;42.138;24.742;2023-05-10T04:19:28;24.00;34.30
80232;DHT22;69541;42.138;24.742;2023-05-10T04:21:54;24.00;34.20
80232;DHT22;69541;42.138;24.742;2023-05-10T04:24:19;24.00;34.40
80232;DHT22;69541;42.138;24.742;2023-05-10T04:26:45;24.00;34.30
80232;DHT22;69541;42.138;24.742;2023-05-10T04:29:11;24.00;34.20
80232;DHT22;69541;42.138;24.742;2023-05-10T04:31:36;24.00;33.90
80232;DHT22;69541;42.138;24.742;2023-05-10T04:34:02;24.00;34.00
80232;DHT22;69541;42.138;24.742;2023-05-10T04:36:28;24.00;33.80
80232;DHT22;69541;42.138;24.742;2023-05-10T04:38:54;24.00;34.10
80232;DHT22;69541;42.138;24.742;2023-05-10T04:41:20;24.00;33.80
80232;DHT22;69541;42.138;24.742;2023-05-10T04:43:46;24.00;33.50
80232;DHT22;69541;42.138;24.742;2023-05-10T04:46:11;23.90;33.70
80232;DHT22;69541;42.138;24.742;2023-05-10T04:48:37;23.90;33.80
80232;DHT22;69541;42.138;24.742;2023-05-10T04:51:03;23.90;35.10
80232;DHT22;69541;42.138;24.742;2023-05-10T04:53:29;23.90;36.00
80232;DHT22;69541;42.138;24.742;2023-05-10T04:55:55;23.90;38.50
80232;DHT22;69541;42.138;24.742;2023-05-10T04:58:20;23.90;38.60
80232;DHT22;69541;42.138;24.742;2023-05-10T05:00:46;23.90;37.20
80232;DHT22;69541;42.138;24.742;2023-05-10T05:03:12;23.90;37.00
80232;DHT22;69541;42.138;24.742;2023-05-10T05:05:37;23.90;36.60
80232;DHT22;69541;42.138;24.742;2023-05-10T05:08:03;23.80;36.40
80232;DHT22;69541;42.138;24.742;2023-05-10T05:10:29;23.70;37.20
80232;DHT22;69541;42.138;24.742;2023-05-10T05:12:55;23.70;37.50
80232;DHT22;69541;42.138;24.742;2023-05-10T05:15:21;23.70;37.30
80232;DHT22;69541;42.138;24.742;2023-05-10T05:17:46;23.70;36.60
80232;DHT22;69541;42.138;24.742;2023-05-10T05:20:12;23.70;36.10
80232;DHT22;69541;42.138;24.742;2023-05-10T05:22:38;23.70;35.40
80232;DHT22;69541;42.138;24.742;2023-05-10T05:25:04;23.70;35.50
80232;DHT22;69541;42.138;24.742;2023-05-10T05:27:31;23.70;35.50
80232;DHT22;69541;42.138;24.742;2023-05-10T05:29:57;23.70;35.50
80232;DHT22;69541;42.138;24.742;2023-05-10T05:32:23;23.70;36.00
80232;DHT22;69541;42.138;24.742;2023-05-10T05:34:49;23.80;35.40
80232;DHT22;69541;42.138;24.742;2023-05-10T05:37:17;23.70;35.80
80232;DHT22;69541;42.138;24.742;2023-05-10T05:39:43;23.80;35.30
80232;DHT22;69541;42.138;24.742;2023-05-10T05:42:13;23.70;34.90
80232;DHT22;69541;42.138;24.742;2023-05-10T05:44:39;23.70;34.90
80232;DHT22;69541;42.138;24.742;2023-05-10T05:47:05;23.70;35.30
80232;DHT22;69541;42.138;24.742;2023-05-10T05:49:31;23.60;34.50
80232;DHT22;69541;42.138;24.742;2023-05-10T05:52:03;23.60;35.80
80232;DHT22;69541;42.138;24.742;2023-05-10T05:54:30;23.60;36.10
80232;DHT22;69541;42.138;24.742;2023-05-10T05:57:00;23.60;35.30
80232;DHT22;69541;42.138;24.742;2023-05-10T05:59:26;23.60;35.40
80232;DHT22;69541;42.138;24.742;2023-05-10T06:01:52;23.60;36.40
80232;DHT22;69541;42.138;24.742;2023-05-10T06:04:18;23.60;36.60
80232;DHT22;69541;42.138;24.742;2023-05-10T06:06:44;23.70;36.00
80232;DHT22;69541;42.138;24.742;2023-05-10T06:09:10;23.80;35.70
80232;DHT22;69541;42.138;24.742;2023-05-10T06:11:36;23.80;35.70
80232;DHT22;69541;42.138;24.742;2023-05-10T06:14:02;23.90;35.50
80232;DHT22;69541;42.138;24.742;2023-05-10T06:16:33;24.00;35.80
80232;DHT22;69541;42.138;24.742;2023-05-10T06:18:59;24.10;35.60
80232;DHT22;69541;42.138;24.742;2023-05-10T06:21:24;24.10;35.80
80232;DHT22;69541;42.138;24.742;2023-05-10T06:23:51;24.20;35.60
80232;DHT22;69541;42.138;24.742;2023-05-10T06:26:16;24.20;35.60
80232;DHT22;69541;42.138;24.742;2023-05-10T06:28:42;24.20;35.60
80232;DHT22;69541;42.138;24.742;2023-05-10T06:31:08;24.30;35.70
80232;DHT22;69541;42.138;24.742;2023-05-10T06:33:34;24.30;35.70
80232;DHT22;69541;42.138;24.742;2023-05-10T06:35:59;24.30;35.60
80232;DHT22;69541;42.138;24.742;2023-05-10T06:38:25;24.40;35.70
80232;DHT22;69541;42.138;24.742;2023-05-10T06:40:51;24.40;35.70
80232;DHT22;69541;42.138;24.742;2023-05-10T06:43:17;24.40;35.70
80232;DHT22;69541;42.138;24.742;2023-05-10T06:45:42;24.50;35.90
80232;DHT22;69541;42.138;24.742;2023-05-10T06:48:08;24.50;35.80
80232;DHT22;69541;42.138;24.742;2023-05-10T06:50:34;24.50;35.90
80232;DHT22;69541;42.138;24.742;2023-05-10T06:53:00;24.60;36.00
80232;DHT22;69541;42.138;24.742;2023-05-10T06:55:27;24.60;36.10
80232;DHT22;69541;42.138;24.742;2023-05-10T06:57:53;24.60;36.10
80232;DHT22;69541;42.138;24.742;2023-05-10T07:00:19;24.70;36.30
80232;DHT22;69541;42.138;24.742;2023-05-10T07:02:45;24.70;36.40
80232;DHT22;69541;42.138;24.742;2023-05-10T07:05:12;24.70;36.50
80232;DHT22;69541;42.138;24.742;2023-05-10T07:07:37;24.70;36.50
80232;DHT22;69541;42.138;24.742;2023-05-10T07:10:04;24.70;36.40
80232;DHT22;69541;42.138;24.742;2023-05-10T07:12:30;24.70;36.40
80232;DHT22;69541;42.138;24.742;2023-05-10T07:14:55;24.80;36.50
80232;DHT22;69541;42.138;24.742;2023-05-10T07:17:21;24.80;36.60
80232;DHT22;69541;42.138;24.742;2023-05-10T07:19:47;24.90;36.80
80232;DHT22;69541;42.138;24.742;2023-05-10T07:22:12;24.90;36.70
80232;DHT22;69541;42.138;24.742;2023-05-10T07:24:39;24.90;36.90
80232;DHT22;69541;42.138;24.742;2023-05-10T07:27:04;24.90;36.90
80232;DHT22;69541;42.138;24.742;2023-05-10T07:29:30;24.90;36.90
80232;DHT22;69541;42.138;24.742;2023-05-10T07:31:56;24.90;37.00
80232;DHT22;69541;42.138;24.742;2023-05-10T07:34:22;25.00;37.10
80232;DHT22;69541;42.138;24.742;2023-05-10T07:36:48;25.00;37.10
80232;DHT22;69541;42.138;24.742;2023-05-10T07:39:13;25.00;36.90
80232;DHT22;69541;42.138;24.742;2023-05-10T07:41:39;25.10;37.00
80232;DHT22;69541;42.138;24.742;2023-05-10T07:44:06;25.10;37.00
80232;DHT22;69541;42.138;24.742;2023-05-10T07:46:31;25.10;37.00
80232;DHT22;69541;42.138;24.742;2023-05-10T07:48:57;25.10;37.10
80232;DHT22;69541;42.138;24.742;2023-05-10T07:51:23;25.10;37.20
80232;DHT22;69541;42.138;24.742;2023-05-10T07:53:48;25.10;37.30
80232;DHT22;69541;42.138;24.742;2023-05-10T07:56:31;25.10;37.20
80232;DHT22;69541;42.138;24.742;2023-05-10T07:59:01;25.10;37.30
80232;DHT22;69541;42.138;24.742;2023-05-10T08:01:31;25.10;37.20
80232;DHT22;69541;42.138;24.742;2023-05-10T08:03:57;25.20;37.20
80232;DHT22;69541;42.138;24.742;2023-05-10T08:06:23;25.20;37.20
80232;DHT22;69541;42.138;24.742;2023-05-10T08:08:49;25.20;37.30
80232;DHT22;69541;42.138;24.742;2023-05-10T08:11:19;25.20;37.30
80232;DHT22;69541;42.138;24.742;2023-05-10T08:13:46;25.20;37.30
80232;DHT22;69541;42.138;24.742;2023-05-10T08:16:12;25.10;37.20
80232;DHT22;69541;42.138;24.742;2023-05-10T08:18:38;25.10;37.30
80232;DHT22;69541;42.138;24.742;2023-05-10T08:21:04;25.20;37.40
80232;DHT22;69541;42.138;24.742;2023-05-10T08:23:30;25.20;37.50
80232;DHT22;69541;42.138;24.742;2023-05-10T08:25:56;25.20;37.30
80232;DHT22;69541;42.138;24.742;2023-05-10T08:28:21;25.20;37.40
80232;DHT22;69541;42.138;24.742;2023-05-10T08:30:49;25.20;37.60
80232;DHT22;69541;42.138;24.742;2023-05-10T08:33:15;25.20;37.50
80232;DHT22;69541;42.138;24.742;2023-05-10T08:35:41;25.20;37.60
80232;DHT22;69541;42.138;24.742;2023-05-10T08:38:07;25.30;38.00
80232;DHT22;69541;42.138;24.742;2023-05-10T08:40:32;25.20;37.90
80232;DHT22;69541;42.138;24.742;2023-05-10T08:43:06;25.30;38.20
80232;DHT22;69541;42.138;24.742;2023-05-10T08:45:39;25.30;38.20
80232;DHT22;69541;42.138;24.742;2023-05-10T08:48:06;25.30;37.80
80232;DHT22;69541;42.138;24.742;2023-05-10T08:50:37;25.30;37.80
80232;DHT22;69541;42.138;24.742;2023-05-10T08:53:11;25.30;38.00
80232;DHT22;69541;42.138;24.742;2023-05-10T08:55:40;25.20;38.10
80232;DHT22;69541;42.138;24.742;2023-05-10T08:58:08;25.30;38.20
80232;DHT22;69541;42.138;24.742;2023-05-10T09:00:34;25.20;38.20
80232;DHT22;69541;42.138;24.742;2023-05-10T09:03:02;25.30;38.20
80232;DHT22;69541;42.138;24.742;2023-05-10T09:05:29;25.30;38.20
80232;DHT22;69541;42.138;24.742;2023-05-10T09:07:54;25.20;38.10
80232;DHT22;69541;42.138;24.742;2023-05-10T09:10:20;25.20;38.20
80232;DHT22;69541;42.138;24.742;2023-05-10T09:12:50;25.20;38.20
80232;DHT22;69541;42.138;24.742;2023-05-10T09:15:17;25.20;38.10
80232;DHT22;69541;42.138;24.742;2023-05-10T09:17:44;25.20;38.10
80232;DHT22;69541;42.138;24.742;2023-05-10T09:20:11;25.20;38.20
80232;DHT22;69541;42.138;24.742;2023-05-10T09:22:36;25.20;38.20
80232;DHT22;69541;42.138;24.742;2023-05-10T09:27:33;25.20;38.10
80232;DHT22;69541;42.138;24.742;2023-05-10T09:29:58;25.20;38.00
80232;DHT22;69541;42.138;24.742;2023-05-10T09:32:45;25.20;37.90
80232;DHT22;69541;42.138;24.742;2023-05-10T09:35:12;25.20;38.00
80232;DHT22;69541;42.138;24.742;2023-05-10T09:37:46;25.20;37.70
80232;DHT22;69541;42.138;24.742;2023-05-10T09:40:15;25.20;37.40
80232;DHT22;69541;42.138;24.742;2023-05-10T09:42:43;25.20;37.10
80232;DHT22;69541;42.138;24.742;2023-05-10T09:45:15;25.20;37.90
80232;DHT22;69541;42.138;24.742;2023-05-10T09:47:41;25.20;36.50
80232;DHT22;69541;42.138;24.742;2023-05-10T09:50:07;25.20;36.20
80232;DHT22;69541;42.138;24.742;2023-05-10T09:52:55;25.20;36.40
80232;DHT22;69541;42.138;24.742;2023-05-10T09:55:25;25.20;36.20
80232;DHT22;69541;42.138;24.742;2023-05-10T09:57:59;25.20;36.00
80232;DHT22;69541;42.138;24.742;2023-05-10T10:00:26;25.20;36.00
80232;DHT22;69541;42.138;24.742;2023-05-10T10:02:57;25.20;36.00
80232;DHT22;69541;42.138;24.742;2023-05-10T10:05:35;25.30;35.80
80232;DHT22;69541;42.138;24.742;2023-05-10T10:08:05;25.20;35.70
80232;DHT22;69541;42.138;24.742;2023-05-10T10:10:31;25.20;35.60
80232;DHT22;69541;42.138;24.742;2023-05-10T10:12:57;25.20;35.40
80232;DHT22;69541;42.138;24.742;2023-05-10T10:15:23;25.20;34.30
80232;DHT22;69541;42.138;24.742;2023-05-10T10:17:51;25.30;34.40
80232;DHT22;69541;42.138;24.742;2023-05-10T10:20:18;25.20;34.60
80232;DHT22;69541;42.138;24.742;2023-05-10T10:22:43;25.20;34.80
80232;DHT22;69541;42.138;24.742;2023-05-10T10:25:16;25.20;34.20
80232;DHT22;69541;42.138;24.742;2023-05-10T10:27:54;25.30;34.40
80232;DHT22;69541;42.138;24.742;2023-05-10T10:30:42;25.20;34.10
80232;DHT22;69541;42.138;24.742;2023-05-10T10:35:59;25.20;34.20
80232;DHT22;69541;42.138;24.742;2023-05-10T10:38:25;25.10;34.00
80232;DHT22;69541;42.138;24.742;2023-05-10T10:41:11;25.20;34.10
80232;DHT22;69541;42.138;24.742;2023-05-10T10:47:03;25.10;33.80
80232;DHT22;69541;42.138;24.742;2023-05-10T10:52:28;25.10;33.60
80232;DHT22;69541;42.138;24.742;2023-05-10T10:57:55;25.10;33.70
80232;DHT22;69541;42.138;24.742;2023-05-10T11:00:32;25.10;33.40
80232;DHT22;69541;42.138;24.742;2023-05-10T11:03:10;25.10;32.80
80232;DHT22;69541;42.138;24.742;2023-05-10T11:05:41;25.10;33.50
80232;DHT22;69541;42.138;24.742;2023-05-10T11:08:50;25.10;33.60
80232;DHT22;69541;42.138;24.742;2023-05-10T11:13:32;25.00;33.50
80232;DHT22;69541;42.138;24.742;2023-05-10T11:15:59;25.00;33.50
80232;DHT22;69541;42.138;24.742;2023-05-10T11:18:36;24.90;33.30
80232;DHT22;69541;42.138;24.742;2023-05-10T11:21:03;24.90;33.50
80232;DHT22;69541;42.138;24.742;2023-05-10T11:23:54;25.00;33.50
80232;DHT22;69541;42.138;24.742;2023-05-10T11:26:23;25.00;33.60
80232;DHT22;69541;42.138;24.742;2023-05-10T11:28:52;25.00;33.50
80232;DHT22;69541;42.138;24.742;2023-05-10T11:31:19;25.00;33.40
80232;DHT22;69541;42.138;24.742;2023-05-10T11:33:50;25.00;33.30
80232;DHT22;69541;42.138;24.742;2023-05-10T11:36:24;25.00;33.10
80232;DHT22;69541;42.138;24.742;2023-05-10T11:38:52;25.00;33.10
80232;DHT22;69541;42.138;24.742;2023-05-10T11:41:18;25.00;33.00
80232;DHT22;69541;42.138;24.742;2023-05-10T11:43:47;25.10;32.90
80232;DHT22;69541;42.138;24.742;2023-05-10T11:46:14;25.00;34.00
80232;DHT22;69541;42.138;24.742;2023-05-10T11:48:42;25.10;32.90
80232;DHT22;69541;42.138;24.742;2023-05-10T11:51:09;25.10;32.80
80232;DHT22;69541;42.138;24.742;2023-05-10T11:53:35;25.10;32.80
80232;DHT22;69541;42.138;24.742;2023-05-10T11:56:08;25.10;32.70
80232;DHT22;69541;42.138;24.742;2023-05-10T11:58:36;25.10;32.70
80232;DHT22;69541;42.138;24.742;2023-05-10T12:01:03;25.10;32.60
80232;DHT22;69541;42.138;24.742;2023-05-10T12:03:29;25.10;32.70
80232;DHT22;69541;42.138;24.742;2023-05-10T12:05:56;25.10;32.60
80232;DHT22;69541;42.138;24.742;2023-05-10T12:08:25;25.10;32.60
80232;DHT22;69541;42.138;24.742;2023-05-10T12:10:51;25.10;32.50
80232;DHT22;69541;42.138;24.742;2023-05-10T12:13:18;25.10;32.60
80232;DHT22;69541;42.138;24.742;2023-05-10T12:15:44;25.10;32.40
80232;DHT22;69541;42.138;24.742;2023-05-10T12:18:11;25.10;32.30
80232;DHT22;69541;42.138;24.742;2023-05-10T12:20:37;25.10;32.30
80232;DHT22;69541;42.138;24.742;2023-05-10T12:23:04;25.10;32.30
80232;DHT22;69541;42.138;24.742;2023-05-10T12:25:32;25.20;32.10
80232;DHT22;69541;42.138;24.742;2023-05-10T12:27:59;25.20;32.20
80232;DHT22;69541;42.138;24.742;2023-05-10T12:30:31;25.20;32.20
80232;DHT22;69541;42.138;24.742;2023-05-10T12:33:11;25.10;32.30
80232;DHT22;69541;42.138;24.742;2023-05-10T12:35:50;25.20;32.30
80232;DHT22;69541;42.138;24.742;2023-05-10T12:38:37;25.20;32.40
80232;DHT22;69541;42.138;24.742;2023-05-10T12:41:08;25.20;32.40
80232;DHT22;69541;42.138;24.742;2023-05-10T12:43:35;25.30;32.60
80232;DHT22;69541;42.138;24.742;2023-05-10T12:46:19;25.30;32.40
80232;DHT22;69541;42.138;24.742;2023-05-10T12:48:45;25.30;32.30
80232;DHT22;69541;42.138;24.742;2023-05-10T12:51:12;25.30;32.40
80232;DHT22;69541;42.138;24.742;2023-05-10T12:53:40;25.20;32.30
80232;DHT22;69541;42.138;24.742;2023-05-10T12:56:06;25.20;32.30
80232;DHT22;69541;42.138;24.742;2023-05-10T12:58:32;25.20;32.40
80232;DHT22;69541;42.138;24.742;2023-05-10T13:00:58;25.20;32.50
80232;DHT22;69541;42.138;24.742;2023-05-10T13:03:24;25.20;32.40
80232;DHT22;69541;42.138;24.742;2023-05-10T13:05:50;25.20;32.40
80232;DHT22;69541;42.138;24.742;2023-05-10T13:08:16;25.20;32.30
80232;DHT22;69541;42.138;24.742;2023-05-10T13:10:41;25.20;32.30
80232;DHT22;69541;42.138;24.742;2023-05-10T13:13:07;25.20;32.20
80232;DHT22;69541;42.138;24.742;2023-05-10T13:15:33;25.30;32.20
80232;DHT22;69541;42.138;24.742;2023-05-10T13:18:00;25.30;32.10
80232;DHT22;69541;42.138;24.742;2023-05-10T13:20:25;25.30;32.10
80232;DHT22;69541;42.138;24.742;2023-05-10T13:22:52;25.30;31.90
80232;DHT22;69541;42.138;24.742;2023-05-10T13:25:17;25.30;31.90
80232;DHT22;69541;42.138;24.742;2023-05-10T13:27:43;25.30;32.00
80232;DHT22;69541;42.138;24.742;2023-05-10T13:30:09;25.30;32.10
80232;DHT22;69541;42.138;24.742;2023-05-10T13:32:37;25.30;32.20
80232;DHT22;69541;42.138;24.742;2023-05-10T13:35:03;25.20;33.30
80232;DHT22;69541;42.138;24.742;2023-05-10T13:37:29;25.20;32.20
80232;DHT22;69541;42.138;24.742;2023-05-10T13:39:55;25.20;32.30
80232;DHT22;69541;42.138;24.742;2023-05-10T13:42:22;25.20;32.10
80232;DHT22;69541;42.138;24.742;2023-05-10T13:44:51;25.20;32.10
80232;DHT22;69541;42.138;24.742;2023-05-10T13:47:17;25.20;32.20
80232;DHT22;69541;42.138;24.742;2023-05-10T13:49:43;25.20;32.20
80232;DHT22;69541;42.138;24.742;2023-05-10T13:52:08;25.20;32.40
80232;DHT22;69541;42.138;24.742;2023-05-10T13:54:36;25.20;32.20
80232;DHT22;69541;42.138;24.742;2023-05-10T13:57:02;25.30;32.00
80232;DHT22;69541;42.138;24.742;2023-05-10T13:59:28;25.20;31.90
80232;DHT22;69541;42.138;24.742;2023-05-10T14:01:54;25.20;31.90
80232;DHT22;69541;42.138;24.742;2023-05-10T14:04:20;25.20;31.80
80232;DHT22;69541;42.138;24.742;2023-05-10T14:06:46;25.20;31.80
80232;DHT22;69541;42.138;24.742;2023-05-10T14:09:11;25.20;31.70
80232;DHT22;69541;42.138;24.742;2023-05-10T14:11:38;25.20;31.50
80232;DHT22;69541;42.138;24.742;2023-05-10T14:14:07;25.20;31.60
80232;DHT22;69541;42.138;24.742;2023-05-10T14:16:32;25.30;31.70
80232;DHT22;69541;42.138;24.742;2023-05-10T14:18:58;25.30;31.60
80232;DHT22;69541;42.138;24.742;2023-05-10T14:21:24;25.30;31.60
80232;DHT22;69541;42.138;24.742;2023-05-10T14:23:50;25.30;32.10
80232;DHT22;69541;42.138;24.742;2023-05-10T14:26:15;25.30;32.50
80232;DHT22;69541;42.138;24.742;2023-05-10T14:28:41;25.30;32.40
80232;DHT22;69541;42.138;24.742;2023-05-10T14:31:07;25.30;32.40
80232;DHT22;69541;42.138;24.742;2023-05-10T14:33:32;25.40;32.40
80232;DHT22;69541;42.138;24.742;2023-05-10T14:35:58;25.30;32.20
80232;DHT22;69541;42.138;24.742;2023-05-10T14:38:25;25.40;32.10
80232;DHT22;69541;42.138;24.742;2023-05-10T14:40:51;25.30;31.90
80232;DHT22;69541;42.138;24.742;2023-05-10T14:43:17;25.30;31.50
80232;DHT22;69541;42.138;24.742;2023-05-10T14:45:43;25.30;31.40
80232;DHT22;69541;42.138;24.742;2023-05-10T14:48:08;25.30;31.80
80232;DHT22;69541;42.138;24.742;2023-05-10T14:50:37;25.30;31.90
80232;DHT22;69541;42.138;24.742;2023-05-10T14:53:34;25.30;31.90
80232;DHT22;69541;42.138;24.742;2023-05-10T14:56:00;25.30;31.80
80232;DHT22;69541;42.138;24.742;2023-05-10T14:58:29;25.30;31.70
80232;DHT22;69541;42.138;24.742;2023-05-10T15:07:43;25.30;30.20
80232;DHT22;69541;42.138;24.742;2023-05-10T15:10:10;25.30;30.70
80232;DHT22;69541;42.138;24.742;2023-05-10T15:12:37;25.30;30.90
80232;DHT22;69541;42.138;24.742;2023-05-10T15:15:02;25.30;30.90
80232;DHT22;69541;42.138;24.742;2023-05-10T15:17:29;25.30;30.50
80232;DHT22;69541;42.138;24.742;2023-05-10T15:19:54;25.30;30.40
80232;DHT22;69541;42.138;24.742;2023-05-10T15:23:31;25.20;30.00
80232;DHT22;69541;42.138;24.742;2023-05-10T15:26:00;25.30;31.70
80232;DHT22;69541;42.138;24.742;2023-05-10T15:28:26;25.30;31.50
80232;DHT22;69541;42.138;24.742;2023-05-10T15:30:52;25.30;31.50
80232;DHT22;69541;42.138;24.742;2023-05-10T15:33:17;25.30;31.40
80232;DHT22;69541;42.138;24.742;2023-05-10T15:35:43;25.40;31.30
80232;DHT22;69541;42.138;24.742;2023-05-10T15:38:09;25.40;31.30
80232;DHT22;69541;42.138;24.742;2023-05-10T15:40:35;25.40;31.30
80232;DHT22;69541;42.138;24.742;2023-05-10T15:43:00;25.40;31.20
80232;DHT22;69541;42.138;24.742;2023-05-10T15:45:26;25.40;31.10
80232;DHT22;69541;42.138;24.742;2023-05-10T15:47:52;25.40;31.00
80232;DHT22;69541;42.138;24.742;2023-05-10T15:50:17;25.40;31.00
80232;DHT22;69541;42.138;24.742;2023-05-10T15:52:43;25.40;31.40